Time;durP1;ratioP1;P1;durP2;ratioP2;P2;SDS_P1;SDS_P2;PMS_P1;PMS_P2;Temp;Humidity;BMP_temperature;BMP_pressure;BME280_temperature;BME280_humidity;BME280_pressure;Samples;Min_cycle;Max_cycle;Signal;HPM_P1;HPM_P2
2022/10/08 04:32:33;;;;;;;;;1.50;1.50;;;;;14.15;69.24;101742.84;5042199;28;46417;-72
2022/10/08 04:34:59;;;;;;;;;2.00;2.00;;;;;14.16;69.85;101743.72;5037059;28;45390;-72
2022/10/08 04:37:24;;;;;;;;;3.00;1.75;;;;;14.18;70.60;101740.03;5055773;28;45219;-74
2022/10/08 04:39:49;;;;;;;;;1.00;1.00;;;;;14.19;69.85;101739.09;5054546;28;45528;-74
2022/10/08 04:42:15;;;;;;;;;2.00;2.00;;;;;14.15;70.47;101741.97;5053229;28;47141;-73
2022/10/08 04:44:40;;;;;;;;;2.50;1.00;;;;;14.11;70.40;101729.59;5053811;28;45345;-73
2022/10/08 04:47:06;;;;;;;;;2.00;2.00;;;;;14.26;70.34;101753.16;5055354;28;45362;-74
2022/10/08 04:49:31;;;;;;;;;1.00;1.00;;;;;14.33;70.46;101765.41;5055094;28;45423;-73
2022/10/08 04:51:56;;;;;;;;;1.00;1.00;;;;;14.29;70.65;101771.91;5054996;28;45831;-73
2022/10/08 04:54:22;;;;;;;;;1.00;1.00;;;;;14.27;70.66;101761.19;5054825;28;45346;-74
2022/10/08 04:56:47;;;;;;;;;1.00;1.00;;;;;14.36;70.30;101768.88;5055173;28;45855;-73
2022/10/08 04:59:12;;;;;;;;;2.00;2.00;;;;;14.32;70.71;101777.16;5054996;28;45520;-73
2022/10/08 05:01:38;;;;;;;;;1.00;1.00;;;;;14.25;70.57;101768.47;5055057;28;45323;-73
2022/10/08 05:04:03;;;;;;;;;2.00;1.00;;;;;14.23;70.95;101762.25;5055123;28;45359;-73
2022/10/08 05:06:30;;;;;;;;;2.00;1.50;;;;;14.25;71.12;101781.94;5054991;28;45338;-73
2022/10/08 05:08:57;;;;;;;;;1.00;1.00;;;;;14.25;70.75;101778.38;5055123;28;45380;-73
2022/10/08 05:11:24;;;;;;;;;3.00;1.50;;;;;14.25;71.25;101776.56;5055303;28;45346;-74
2022/10/08 05:13:51;;;;;;;;;2.00;2.00;;;;;14.17;70.84;101773.31;5055018;28;45366;-74
2022/10/08 05:16:17;;;;;;;;;3.50;2.25;;;;;14.18;71.48;101787.69;5055295;28;45362;-73
2022/10/08 05:18:44;;;;;;;;;5.75;2.00;;;;;14.17;71.11;101789.50;5055779;28;45354;-72
2022/10/08 05:21:14;;;;;;;;;1.75;0.00;;;;;14.06;71.36;101781.00;5055077;28;46034;-73
2022/10/08 05:23:43;;;;;;;;;3.00;3.00;;;;;14.06;71.94;101793.59;5055125;28;45425;-75
2022/10/08 05:26:24;;;;;;;;;4.00;4.00;;;;;14.03;71.98;101800.88;5055091;28;45334;-72
2022/10/08 05:28:57;;;;;;;;;3.25;2.00;;;;;13.96;72.13;101788.63;5054077;28;45501;-73
2022/10/08 05:31:25;;;;;;;;;3.25;1.75;;;;;13.84;72.19;101785.59;5054328;28;45571;-74
2022/10/08 05:33:50;;;;;;;;;3.00;1.75;;;;;13.95;72.46;101804.88;5052833;28;45387;-73
2022/10/08 05:36:27;;;;;;;;;1.75;1.75;;;;;13.89;72.41;101797.91;5054137;28;45303;-74
2022/10/08 05:38:55;;;;;;;;;2.00;2.00;;;;;13.90;72.21;101806.88;5053470;28;45381;-74
2022/10/08 05:41:23;;;;;;;;;3.75;1.50;;;;;13.83;72.04;101791.91;5053935;28;46193;-74
2022/10/08 05:43:50;;;;;;;;;2.75;2.00;;;;;13.89;72.21;101806.00;5054569;28;45272;-74
2022/10/08 05:46:16;;;;;;;;;4.00;2.50;;;;;13.67;72.05;101782.72;5054690;28;45571;-74
2022/10/08 05:48:43;;;;;;;;;1.50;1.50;;;;;13.79;72.49;101801.94;5054211;28;45519;-73
2022/10/08 05:51:11;;;;;;;;;4.00;2.50;;;;;13.77;72.71;101809.22;5052442;28;46443;-72
2022/10/08 05:53:38;;;;;;;;;1.75;1.75;;;;;13.76;72.75;101812.00;5054185;28;45326;-73
2022/10/08 05:56:06;;;;;;;;;3.00;3.00;;;;;13.78;72.08;101808.25;5054507;28;45565;-73
2022/10/08 05:58:33;;;;;;;;;4.25;4.00;;;;;13.71;72.57;101806.78;5055424;28;45518;-74
2022/10/08 06:01:01;;;;;;;;;1.75;1.75;;;;;13.68;72.71;101804.22;5054606;28;45323;-74
2022/10/08 06:03:27;;;;;;;;;2.75;2.75;;;;;13.69;72.38;101811.38;5054455;28;45232;-74
2022/10/08 06:05:53;;;;;;;;;4.75;3.00;;;;;13.68;72.62;101815.00;5053704;28;45410;-74
2022/10/08 06:08:18;;;;;;;;;3.25;2.00;;;;;13.69;72.00;101816.75;5054025;28;45291;-73
2022/10/08 06:11:04;;;;;;;;;4.00;2.00;;;;;13.75;72.49;101829.97;5053946;28;45409;-73
2022/10/08 06:13:30;;;;;;;;;2.75;2.00;;;;;13.66;72.37;101819.56;5054011;28;45421;-73
2022/10/08 06:16:00;;;;;;;;;3.00;3.00;;;;;13.70;72.08;101825.69;5054144;28;45514;-73
2022/10/08 06:18:29;;;;;;;;;8.25;2.00;;;;;13.72;72.23;101838.19;5053758;28;45509;-73
2022/10/08 06:20:55;;;;;;;;;4.75;2.00;;;;;13.58;72.09;101802.84;5040270;28;45392;-72
2022/10/08 06:23:21;;;;;;;;;2.00;2.00;;;;;13.79;71.88;101830.72;5053728;28;45374;-72
2022/10/08 06:25:47;;;;;;;;;2.00;2.00;;;;;13.76;72.13;101825.47;5054211;28;45394;-76
2022/10/08 06:28:13;;;;;;;;;2.00;2.00;;;;;13.82;71.93;101852.16;5054361;28;45320;-74
2022/10/08 06:30:40;;;;;;;;;3.00;3.00;;;;;13.84;72.05;101850.28;5054358;28;46413;-73
2022/10/08 06:33:06;;;;;;;;;3.25;2.00;;;;;13.72;71.78;101831.91;5054588;28;45379;-76
2022/10/08 06:35:31;;;;;;;;;3.00;2.75;;;;;13.82;71.39;101846.75;5053720;28;45248;-74
2022/10/08 06:37:57;;;;;;;;;3.00;3.00;;;;;13.84;72.08;101861.06;5057073;28;45492;-75
2022/10/08 06:40:22;;;;;;;;;2.25;2.25;;;;;13.86;71.64;101865.47;5052084;28;46135;-75
2022/10/08 06:42:47;;;;;;;;;3.00;3.00;;;;;13.87;71.62;101869.88;5046551;28;45501;-73
2022/10/08 06:45:13;;;;;;;;;5.00;3.25;;;;;13.83;71.75;101862.00;5053265;28;45476;-72
2022/10/08 06:47:38;;;;;;;;;3.75;2.75;;;;;13.87;71.83;101872.56;5053813;28;45538;-74
2022/10/08 06:50:04;;;;;;;;;3.50;3.50;;;;;13.91;71.40;101867.94;5052515;28;46010;-74
2022/10/08 06:52:30;;;;;;;;;3.00;3.00;;;;;13.95;71.40;101875.81;5052628;28;45523;-72
2022/10/08 06:54:55;;;;;;;;;2.00;2.00;;;;;13.91;71.65;101876.91;5053346;28;45405;-70
2022/10/08 06:57:20;;;;;;;;;4.00;4.00;;;;;13.90;71.46;101876.97;5053289;28;45397;-72
2022/10/08 06:59:46;;;;;;;;;2.00;2.00;;;;;13.93;71.24;101890.34;5053730;28;46160;-74
2022/10/08 07:02:11;;;;;;;;;4.75;4.00;;;;;13.97;71.00;101886.56;5055149;28;45502;-74
2022/10/08 07:04:36;;;;;;;;;4.00;4.00;;;;;13.87;70.98;101869.88;5057308;28;45361;-73
2022/10/08 07:07:02;;;;;;;;;2.00;2.00;;;;;14.02;71.06;101888.13;5056529;28;45418;-78
2022/10/08 07:09:28;;;;;;;;;3.00;3.00;;;;;14.07;70.72;101897.84;5057041;28;45798;-78
2022/10/08 07:11:53;;;;;;;;;3.25;3.00;;;;;13.92;70.98;101883.19;5056814;28;45438;-77
2022/10/08 07:14:18;;;;;;;;;3.25;3.25;;;;;14.05;71.20;101902.41;5056430;28;45621;-79
2022/10/08 07:16:44;;;;;;;;;4.75;3.00;;;;;14.05;70.72;101905.09;5056647;28;45504;-77
2022/10/08 07:19:09;;;;;;;;;5.50;3.00;;;;;14.10;71.05;101919.28;5056160;28;45406;-78
2022/10/08 07:21:35;;;;;;;;;6.25;3.50;;;;;14.12;71.45;101914.72;5055349;28;45511;-77
2022/10/08 07:24:00;;;;;;;;;3.00;3.00;;;;;14.19;71.31;101925.19;5057327;28;45508;-78
2022/10/08 07:26:29;;;;;;;;;6.50;4.00;;;;;14.21;71.42;101930.47;5056413;28;45489;-77
2022/10/08 07:28:57;;;;;;;;;3.00;3.00;;;;;14.09;71.03;101904.03;5056952;28;46053;-76
2022/10/08 07:31:28;;;;;;;;;4.75;3.25;;;;;14.22;71.12;101930.41;5057024;28;45392;-74
2022/10/08 07:33:55;;;;;;;;;3.50;3.50;;;;;14.09;71.00;101914.84;5058204;28;45403;-73
2022/10/08 07:36:22;;;;;;;;;3.75;3.75;;;;;14.17;71.57;101921.66;5057357;28;46358;-72
2022/10/08 07:38:55;;;;;;;;;3.75;3.75;;;;;14.25;71.48;101942.91;5057358;28;45562;-71
2022/10/08 07:41:21;;;;;;;;;3.50;2.00;;;;;14.21;71.39;101931.34;5039638;28;45430;-75
2022/10/08 07:43:57;;;;;;;;;2.00;2.00;;;;;14.17;71.06;101915.38;5051758;28;45674;-73
2022/10/08 07:46:22;;;;;;;;;5.00;3.25;;;;;14.29;71.45;101931.06;5055325;28;45478;-74
2022/10/08 07:48:49;;;;;;;;;3.25;2.00;;;;;14.42;71.08;101955.72;5052791;28;45636;-74
2022/10/08 07:51:16;;;;;;;;;4.00;3.00;;;;;14.47;70.93;101953.69;5054642;28;45429;-73
2022/10/08 07:53:43;;;;;;;;;5.00;5.00;;;;;14.51;70.73;101958.03;5053328;28;45477;-73
2022/10/08 07:56:10;;;;;;;;;4.50;4.00;;;;;14.51;70.49;101964.31;5053289;28;45529;-73
2022/10/08 07:58:36;;;;;;;;;5.00;3.00;;;;;14.42;70.72;101932.31;5053427;28;46215;-74
2022/10/08 08:01:04;;;;;;;;;6.25;4.00;;;;;14.66;70.45;101968.16;5053073;28;45405;-74
2022/10/08 08:03:30;;;;;;;;;9.75;8.00;;;;;14.70;70.35;101967.97;5055470;28;45650;-74
2022/10/08 08:06:03;;;;;;;;;3.75;3.75;;;;;14.74;70.34;101966.00;5041873;28;45351;-74
2022/10/08 08:08:29;;;;;;;;;9.75;4.00;;;;;14.73;70.49;101962.41;5052457;28;46449;-72
2022/10/08 08:10:58;;;;;;;;;4.00;4.00;;;;;14.83;70.83;101972.81;5055842;28;45547;-73
2022/10/08 08:13:24;;;;;;;;;9.50;3.00;;;;;14.76;70.62;101958.72;5054804;28;45453;-73
2022/10/08 08:16:01;;;;;;;;;4.00;4.00;;;;;14.84;70.33;101982.69;5054052;28;46480;-75
2022/10/08 08:18:31;;;;;;;;;2.50;2.50;;;;;14.86;70.39;101976.28;5055880;28;45425;-74
2022/10/08 08:21:02;;;;;;;;;3.50;2.50;;;;;14.96;70.22;101996.53;5053891;28;45446;-73
2022/10/08 08:23:33;;;;;;;;;2.25;1.00;;;;;14.99;69.73;101990.09;5055635;28;45291;-74
2022/10/08 08:26:00;;;;;;;;;4.50;3.00;;;;;15.01;69.98;101999.88;5055694;28;45446;-75
2022/10/08 08:28:26;;;;;;;;;5.50;2.75;;;;;15.04;69.74;101999.75;5055732;28;46205;-73
2022/10/08 08:30:51;;;;;;;;;2.25;2.25;;;;;15.08;69.43;101998.66;5055492;28;45311;-73
2022/10/08 08:33:16;;;;;;;;;6.25;3.00;;;;;15.22;69.25;102011.56;5055541;28;45357;-73
2022/10/08 08:35:50;;;;;;;;;3.00;3.00;;;;;15.27;69.09;101998.72;5055244;28;45489;-72
2022/10/08 08:38:15;;;;;;;;;5.75;3.75;;;;;15.34;68.19;102004.72;5055206;28;45450;-76
2022/10/08 08:40:41;;;;;;;;;3.50;2.00;;;;;15.11;68.20;101970.66;5055556;28;45420;-71
2022/10/08 08:43:06;;;;;;;;;2.50;2.00;;;;;15.38;68.08;102018.03;5055064;28;45455;-69
2022/10/08 08:45:35;;;;;;;;;4.50;3.00;;;;;15.42;67.97;102016.94;5053867;28;45538;-71
2022/10/08 08:48:11;;;;;;;;;3.00;3.00;;;;;15.42;67.96;102008.81;5054842;28;45281;-70
2022/10/08 08:50:40;;;;;;;;;4.00;4.00;;;;;15.53;68.02;102019.16;5054724;28;45424;-70
2022/10/08 08:53:08;;;;;;;;;5.75;2.00;;;;;15.57;67.79;102012.66;5054909;28;45354;-73
2022/10/08 08:55:37;;;;;;;;;5.25;3.00;;;;;15.66;67.13;102025.75;5054637;28;45512;-72
2022/10/08 08:58:08;;;;;;;;;3.00;3.00;;;;;15.72;67.23;102027.31;5054725;28;45360;-71
2022/10/08 09:00:38;;;;;;;;;7.00;4.75;;;;;15.63;66.66;101998.00;5054789;28;45425;-71
2022/10/08 09:03:17;;;;;;;;;6.75;4.00;;;;;15.88;66.46;102023.81;5054757;28;45258;-71
2022/10/08 09:05:45;;;;;;;;;3.25;3.25;;;;;15.92;65.57;102021.81;5054485;28;45572;-72
2022/10/08 09:08:29;;;;;;;;;3.75;2.00;;;;;15.99;64.43;102026.00;5054293;28;47080;-70
2022/10/08 09:11:01;;;;;;;;;2.75;2.50;;;;;16.07;64.42;102040.06;5054700;28;45501;-72
2022/10/08 09:13:36;;;;;;;;;1.00;1.00;;;;;16.10;64.08;102036.31;5054845;28;45512;-73
2022/10/08 09:16:02;;;;;;;;;3.25;2.75;;;;;16.13;63.95;102044.28;5042045;28;45400;-73
2022/10/08 09:18:28;;;;;;;;;4.00;3.00;;;;;16.10;64.46;102034.47;5055500;28;45386;-70
2022/10/08 09:20:53;;;;;;;;;3.50;2.00;;;;;16.12;63.97;102029.00;5053885;28;45328;-73
2022/10/08 09:23:21;;;;;;;;;2.00;2.00;;;;;16.21;62.56;102042.06;5055775;28;45709;-73
2022/10/08 09:25:55;;;;;;;;;2.25;2.00;;;;;16.19;62.62;102044.84;5055516;28;45410;-69
2022/10/08 09:28:43;;;;;;;;;1.50;1.50;;;;;16.18;61.59;102031.38;5055785;28;45284;-71
2022/10/08 09:31:33;;;;;;;;;2.00;2.00;;;;;16.23;62.24;102043.75;5052983;28;45342;-72
2022/10/08 09:34:14;;;;;;;;;4.00;2.00;;;;;16.30;62.26;102051.56;5053291;28;45571;-72
2022/10/08 09:37:04;;;;;;;;;5.00;2.00;;;;;16.28;62.02;102043.53;5052866;28;45503;-71
2022/10/08 09:39:31;;;;;;;;;2.00;2.00;;;;;16.39;62.21;102053.84;5043686;28;45986;-71
2022/10/08 09:42:16;;;;;;;;;1.75;1.75;;;;;16.35;60.67;102034.16;5053743;28;45413;-73
2022/10/08 09:44:55;;;;;;;;;1.50;1.50;;;;;16.54;60.28;102062.06;5054570;28;46211;-70
2022/10/08 09:47:22;;;;;;;;;3.00;2.00;;;;;16.59;59.10;102056.41;5053969;28;45514;-70
2022/10/08 09:50:05;;;;;;;;;5.00;2.00;;;;;16.68;59.72;102057.81;5051897;28;45441;-73
2022/10/08 09:52:30;;;;;;;;;1.75;1.00;;;;;16.74;58.27;102055.69;5054937;28;45353;-74
2022/10/08 09:55:09;;;;;;;;;6.00;2.00;;;;;16.73;58.09;102051.22;5040932;28;45377;-72
2022/10/08 09:57:53;;;;;;;;;0.00;0.00;;;;;16.90;58.34;102061.19;5056928;28;45538;-71
2022/10/08 10:00:30;;;;;;;;;1.75;1.75;;;;;16.96;57.71;102058.16;5052351;28;45418;-69
2022/10/08 10:02:58;;;;;;;;;1.00;1.00;;;;;17.01;57.03;102067.78;5052054;28;45461;-73
2022/10/08 10:05:29;;;;;;;;;2.00;2.00;;;;;17.05;56.49;102068.53;5054402;28;45400;-71
2022/10/08 10:07:55;;;;;;;;;3.00;2.00;;;;;17.15;56.95;102058.97;5053937;28;45496;-68
2022/10/08 10:10:28;;;;;;;;;1.00;1.00;;;;;17.26;56.14;102064.72;5053998;28;46177;-70
2022/10/08 10:13:02;;;;;;;;;2.00;2.00;;;;;17.30;55.29;102065.41;5054603;28;45309;-69
2022/10/08 10:15:37;;;;;;;;;8.50;4.75;;;;;17.41;55.37;102065.72;5055841;28;45437;-71
2022/10/08 10:18:18;;;;;;;;;4.00;1.50;;;;;17.50;54.75;102070.66;5050382;28;45583;-71
2022/10/08 10:20:58;;;;;;;;;2.00;2.00;;;;;17.62;53.88;102061.00;5053655;28;45375;-72
2022/10/08 10:23:30;;;;;;;;;1.50;1.50;;;;;17.71;52.92;102065.91;5053050;28;45298;-71
2022/10/08 10:26:23;;;;;;;;;3.50;2.00;;;;;17.71;52.04;102060.50;5048697;28;45478;-69
2022/10/08 10:28:58;;;;;;;;;2.00;2.00;;;;;17.76;53.08;102072.00;5035419;28;45661;-70
2022/10/08 10:31:26;;;;;;;;;1.50;1.50;;;;;17.87;53.21;102065.94;5053663;28;46277;-71
2022/10/08 10:34:01;;;;;;;;;2.00;2.00;;;;;17.99;53.94;102074.31;5052985;28;45532;-70
2022/10/08 10:36:33;;;;;;;;;1.00;1.00;;;;;18.05;53.38;102052.25;5046201;28;45839;-75
2022/10/08 10:39:16;;;;;;;;;2.25;2.25;;;;;18.24;52.99;102059.34;5058127;28;45498;-72
2022/10/08 10:42:07;;;;;;;;;2.25;2.00;;;;;18.28;52.16;102059.09;5056971;28;45318;-73
2022/10/08 10:45:00;;;;;;;;;3.00;3.00;;;;;18.34;52.45;102066.88;5042629;28;45499;-71
2022/10/08 10:47:30;;;;;;;;;3.00;1.75;;;;;18.33;52.69;102076.00;5058057;28;45651;-75
2022/10/08 10:49:57;;;;;;;;;3.00;2.50;;;;;18.29;53.06;102071.69;5056694;28;45335;-73
2022/10/08 10:52:44;;;;;;;;;1.00;1.00;;;;;18.29;53.12;102060.81;5056651;28;46490;-72
2022/10/08 10:55:45;;;;;;;;;2.25;2.25;;;;;18.28;53.15;102044.66;5057077;28;45466;-73
2022/10/08 10:58:11;;;;;;;;;4.00;1.25;;;;;18.49;52.01;102071.44;5057210;28;45826;-73
2022/10/08 11:01:03;;;;;;;;;1.50;1.25;;;;;18.49;50.85;102067.84;5057030;28;45440;-72
2022/10/08 11:03:37;;;;;;;;;1.00;1.00;;;;;18.59;49.94;102070.94;5057459;28;45469;-72
2022/10/08 11:06:26;;;;;;;;;2.00;2.00;;;;;18.59;48.97;102071.81;5056507;28;45362;-77
2022/10/08 11:09:04;;;;;;;;;3.75;1.00;;;;;18.72;48.71;102058.34;5055530;28;45371;-72
2022/10/08 11:11:44;;;;;;;;;1.75;1.75;;;;;19.20;48.20;102063.59;5056900;28;45350;-70
2022/10/08 11:14:33;;;;;;;;;1.00;1.00;;;;;19.79;46.68;102069.03;5056335;28;46322;-73
2022/10/08 11:17:04;;;;;;;;;0.00;0.00;;;;;20.26;46.02;102058.66;5056530;28;45321;-73
2022/10/08 11:19:40;;;;;;;;;0.00;0.00;;;;;20.81;44.47;102065.06;5056469;28;45388;-74
2022/10/08 11:22:37;;;;;;;;;2.00;2.00;;;;;21.30;43.28;102058.00;5056473;28;45429;-75
2022/10/08 11:25:21;;;;;;;;;1.25;0.00;;;;;21.59;40.15;102061.41;5056949;28;45449;-73
2022/10/08 11:28:13;;;;;;;;;1.75;1.75;;;;;22.01;40.60;102062.06;5057168;28;45287;-73
2022/10/08 11:30:46;;;;;;;;;2.00;0.75;;;;;22.68;38.00;102046.97;5056819;28;45385;-71
2022/10/08 11:33:14;;;;;;;;;0.50;0.50;;;;;23.37;37.21;102053.47;5056297;28;45429;-70
2022/10/08 11:36:09;;;;;;;;;0.50;0.50;;;;;24.29;35.31;102052.41;5055951;28;45416;-71
2022/10/08 11:38:48;;;;;;;;;2.75;2.50;;;;;25.69;33.45;102045.84;5055600;28;45392;-74
2022/10/08 11:41:37;;;;;;;;;1.00;0.75;;;;;26.61;30.07;102042.84;5056456;28;45556;-76
2022/10/08 11:44:08;;;;;;;;;0.25;0.25;;;;;26.69;30.45;102034.75;5055990;28;45310;-75
2022/10/08 11:46:35;;;;;;;;;0.00;0.00;;;;;26.37;31.68;102029.47;5056232;28;46419;-73
2022/10/08 11:49:12;;;;;;;;;1.75;1.25;;;;;26.02;30.42;102037.31;5054538;28;45437;-75
2022/10/08 11:51:50;;;;;;;;;0.00;0.00;;;;;25.69;31.35;102029.38;5056012;28;45334;-72
2022/10/08 11:54:39;;;;;;;;;4.00;0.00;;;;;25.68;31.42;102022.13;5056185;28;45412;-72
2022/10/08 11:57:35;;;;;;;;;1.00;1.00;;;;;26.07;32.55;102035.00;5056076;28;46022;-73
2022/10/08 12:00:25;;;;;;;;;1.00;1.00;;;;;26.31;32.46;102027.28;5054755;28;45501;-73
2022/10/08 12:02:53;;;;;;;;;1.50;1.50;;;;;26.56;31.68;102023.13;5055360;28;45225;-74
2022/10/08 12:05:21;;;;;;;;;2.00;2.00;;;;;26.71;30.78;102024.44;5055649;28;45338;-72
2022/10/08 12:07:58;;;;;;;;;0.50;0.00;;;;;26.83;30.09;102021.56;5055741;28;46834;-78
2022/10/08 12:10:31;;;;;;;;;1.00;1.00;;;;;27.09;28.61;102025.50;5055493;28;45772;-79
2022/10/08 12:13:00;;;;;;;;;2.00;0.00;;;;;27.04;28.48;102025.09;5056188;28;45401;-77
2022/10/08 12:15:26;;;;;;;;;0.50;0.25;;;;;26.77;26.94;102017.53;5050193;28;45378;-77
2022/10/08 12:18:24;;;;;;;;;0.50;0.50;;;;;26.74;27.30;102015.03;5051290;28;47387;-78
2022/10/08 12:21:19;;;;;;;;;0.75;0.00;;;;;26.74;27.91;102007.66;5053969;28;45347;-78
2022/10/08 12:23:45;;;;;;;;;1.25;0.00;;;;;26.80;27.72;102003.44;5055705;28;45485;-75
2022/10/08 12:26:14;;;;;;;;;2.00;1.00;;;;;26.89;27.48;101993.44;5054726;28;45537;-75
2022/10/08 12:28:42;;;;;;;;;2.25;1.00;;;;;26.87;27.77;102003.75;5054422;28;45360;-75
2022/10/08 12:31:25;;;;;;;;;1.50;0.00;;;;;26.83;28.17;102003.16;5055071;28;45351;-75
2022/10/08 12:33:57;;;;;;;;;1.00;1.00;;;;;26.83;27.20;101994.03;5057279;28;45403;-81
2022/10/08 12:36:31;;;;;;;;;0.75;0.00;;;;;27.10;27.82;101999.72;5054719;28;45823;-78
2022/10/08 12:39:02;;;;;;;;;1.75;0.75;;;;;27.40;27.19;101988.47;5055577;28;46428;-78
2022/10/08 12:41:46;;;;;;;;;1.25;1.00;;;;;27.78;26.95;101983.88;5054564;28;46061;-78
2022/10/08 12:44:24;;;;;;;;;0.75;0.75;;;;;28.06;26.34;101988.38;5056844;28;45510;-79
2022/10/08 12:47:08;;;;;;;;;0.00;0.00;;;;;28.08;25.78;101983.56;5054748;28;45381;-77
2022/10/08 12:49:50;;;;;;;;;4.00;0.00;;;;;28.14;25.98;101984.84;5055164;28;46509;-73
2022/10/08 12:52:19;;;;;;;;;0.00;0.00;;;;;27.76;26.47;101953.72;5056353;28;45472;-78
2022/10/08 12:54:50;;;;;;;;;0.00;0.00;;;;;27.70;26.18;101979.13;5055748;28;46520;-78
2022/10/08 12:57:28;;;;;;;;;0.50;0.50;;;;;27.46;26.69;101971.38;5053722;28;45951;-78
2022/10/08 12:59:56;;;;;;;;;1.00;0.00;;;;;27.50;27.04;101983.81;5055472;28;47092;-76
2022/10/08 13:02:46;;;;;;;;;2.00;0.00;;;;;27.38;26.48;101957.47;5053356;28;45520;-77
2022/10/08 13:05:30;;;;;;;;;5.00;1.00;;;;;26.92;27.89;101950.03;5041396;28;45580;-78
2022/10/08 13:07:56;;;;;;;;;1.00;1.00;;;;;27.04;28.66;101972.78;5051676;28;46482;-77
2022/10/08 13:10:27;;;;;;;;;2.00;2.00;;;;;27.58;28.38;101965.69;5051885;28;45597;-73
2022/10/08 13:13:05;;;;;;;;;1.50;0.50;;;;;28.55;26.92;101961.34;5054529;28;45465;-77
2022/10/08 13:15:34;;;;;;;;;2.25;1.00;;;;;29.57;25.73;101961.66;5050169;28;45538;-77
2022/10/08 13:18:11;;;;;;;;;0.75;0.75;;;;;30.47;24.75;101956.28;5053135;28;45516;-76
2022/10/08 13:20:37;;;;;;;;;1.00;1.00;;;;;31.08;23.39;101959.66;5052878;28;45410;-76
2022/10/08 13:23:23;;;;;;;;;1.00;1.00;;;;;30.79;23.45;101930.56;5054722;28;45388;-75
2022/10/08 13:25:48;;;;;;;;;2.00;2.00;;;;;30.41;23.26;101948.69;5054865;28;45500;-75
2022/10/08 13:28:20;;;;;;;;;1.00;1.00;;;;;29.58;24.22;101958.75;5054350;28;45527;-75
2022/10/08 13:30:46;;;;;;;;;3.00;2.00;;;;;28.72;25.79;101956.84;5054618;28;46086;-76
2022/10/08 13:33:20;;;;;;;;;1.75;1.75;;;;;27.97;26.33;101958.97;5054508;28;45360;-75
2022/10/08 13:35:59;;;;;;;;;5.25;4.00;;;;;27.28;27.53;101959.38;5054315;28;45251;-77
2022/10/08 13:38:29;;;;;;;;;4.00;2.50;;;;;26.72;28.13;101962.03;5052885;28;45492;-75
2022/10/08 13:40:58;;;;;;;;;3.00;3.00;;;;;26.44;29.47;101963.78;5053255;28;46168;-78
2022/10/08 13:43:25;;;;;;;;;1.25;0.00;;;;;26.78;28.20;101968.88;5054049;28;45504;-77
2022/10/08 13:45:50;;;;;;;;;3.25;1.75;;;;;27.50;27.62;101959.00;5054364;28;45421;-74
2022/10/08 13:48:16;;;;;;;;;2.00;1.00;;;;;28.27;27.47;101949.50;5053969;28;45335;-75
2022/10/08 13:50:51;;;;;;;;;1.00;1.00;;;;;29.17;25.70;101946.56;5053983;28;45342;-75
2022/10/08 13:53:23;;;;;;;;;0.75;0.25;;;;;29.84;23.88;101949.53;5053842;28;45385;-76
2022/10/08 13:55:49;;;;;;;;;2.00;1.00;;;;;30.59;23.39;101950.47;5054335;28;45527;-74
2022/10/08 13:58:18;;;;;;;;;2.75;1.00;;;;;31.14;22.88;101942.31;5054214;28;45397;-75
2022/10/08 14:00:44;;;;;;;;;0.75;0.75;;;;;31.76;21.25;101942.53;5053976;28;47057;-76
2022/10/08 14:03:10;;;;;;;;;1.00;1.00;;;;;32.28;21.60;101935.34;5054415;28;45377;-76
2022/10/08 14:05:46;;;;;;;;;1.00;1.00;;;;;32.67;20.82;101945.44;5053912;28;45326;-76
2022/10/08 14:08:14;;;;;;;;;0.00;0.00;;;;;33.01;20.09;101942.22;5054169;28;45331;-75
2022/10/08 14:10:41;;;;;;;;;0.75;0.75;;;;;32.88;20.23;101898.44;5053744;28;45382;-76
2022/10/08 14:13:10;;;;;;;;;0.00;0.00;;;;;32.97;19.41;101936.22;5056542;28;45355;-75
2022/10/08 14:15:35;;;;;;;;;1.00;1.00;;;;;33.06;19.87;101923.97;5058126;28;45216;-77
2022/10/08 14:18:01;;;;;;;;;2.00;0.00;;;;;32.97;19.71;101925.09;5050961;28;45536;-75
2022/10/08 14:20:26;;;;;;;;;1.50;1.00;;;;;33.30;20.14;101941.47;5057274;28;45584;-74
2022/10/08 14:22:51;;;;;;;;;1.00;1.00;;;;;33.07;19.47;101913.72;5056861;28;45486;-74
2022/10/08 14:25:20;;;;;;;;;1.00;1.00;;;;;33.52;20.15;101929.38;5057066;28;45323;-76
2022/10/08 14:27:46;;;;;;;;;2.50;1.00;;;;;33.61;20.61;101928.22;5057741;28;45433;-76
2022/10/08 14:30:13;;;;;;;;;0.50;0.50;;;;;33.70;19.88;101926.19;5050921;28;45438;-75
2022/10/08 14:32:39;;;;;;;;;0.75;0.75;;;;;33.54;20.19;101910.59;5053467;28;45378;-76
2022/10/08 14:35:05;;;;;;;;;3.00;2.00;;;;;33.33;20.62;101932.75;5057249;28;45433;-75
2022/10/08 14:37:31;;;;;;;;;4.00;1.00;;;;;32.81;21.10;101927.16;5057244;28;45358;-74
2022/10/08 14:39:57;;;;;;;;;3.25;1.00;;;;;32.05;21.84;101917.78;5056883;28;46077;-74
2022/10/08 14:42:22;;;;;;;;;2.75;1.00;;;;;31.35;22.35;101927.91;5056963;28;45528;-77
2022/10/08 14:44:47;;;;;;;;;1.00;1.00;;;;;30.99;23.41;101944.91;5057354;28;45495;-74
2022/10/08 14:47:13;;;;;;;;;1.50;1.50;;;;;30.43;23.64;101929.16;5057019;28;45476;-74
2022/10/08 14:49:39;;;;;;;;;2.00;1.00;;;;;29.87;24.47;101938.97;5055474;28;47454;-74
2022/10/08 14:52:04;;;;;;;;;4.25;1.75;;;;;29.17;24.68;101934.63;5056759;28;45551;-75
2022/10/08 14:54:29;;;;;;;;;1.50;1.50;;;;;28.66;25.50;101941.81;5057004;28;45264;-75
2022/10/08 14:56:55;;;;;;;;;1.00;1.00;;;;;28.57;25.37;101918.78;5057564;28;45363;-75
2022/10/08 14:59:20;;;;;;;;;0.50;0.50;;;;;28.50;24.95;101900.25;5057092;28;45343;-76
2022/10/08 15:01:46;;;;;;;;;1.50;1.00;;;;;28.66;25.28;101922.50;5057447;28;45354;-77
2022/10/08 15:04:13;;;;;;;;;1.75;1.75;;;;;28.36;25.22;101922.88;5057120;28;45492;-75
2022/10/08 15:06:39;;;;;;;;;3.00;1.50;;;;;27.83;26.17;101926.41;5057214;28;45378;-76
2022/10/08 15:09:05;;;;;;;;;0.75;0.75;;;;;27.44;26.22;101928.44;5056921;28;45644;-77
2022/10/08 15:11:31;;;;;;;;;1.75;1.75;;;;;27.37;26.30;101928.19;5057115;28;45477;-76
2022/10/08 15:13:58;;;;;;;;;0.00;0.00;;;;;27.18;26.41;101899.84;5057481;28;45519;-75
2022/10/08 15:16:23;;;;;;;;;2.25;1.75;;;;;27.13;26.79;101929.72;5055979;28;47338;-75
2022/10/08 15:18:48;;;;;;;;;2.00;1.50;;;;;26.89;26.84;101928.28;5056695;28;45419;-75
2022/10/08 15:21:14;;;;;;;;;0.75;0.75;;;;;27.03;26.87;101924.25;5056578;28;45472;-75
2022/10/08 15:23:39;;;;;;;;;0.00;0.00;;;;;27.38;26.72;101923.56;5056912;28;45374;-76
2022/10/08 15:26:07;;;;;;;;;1.00;0.75;;;;;27.74;25.26;101930.06;5056788;28;45380;-74
2022/10/08 15:28:36;;;;;;;;;1.00;1.00;;;;;28.13;25.02;101922.44;5056536;28;45258;-75
2022/10/08 15:31:08;;;;;;;;;2.75;1.75;;;;;28.35;24.21;101916.50;5056556;28;45353;-75
2022/10/08 15:33:38;;;;;;;;;2.50;2.50;;;;;28.53;24.84;101891.66;5056447;28;45346;-75
2022/10/08 15:36:28;;;;;;;;;2.00;2.00;;;;;28.97;23.98;101914.63;5056523;28;45315;-74
2022/10/08 15:39:03;;;;;;;;;1.00;1.00;;;;;28.94;23.85;101913.06;5056446;28;45407;-76
2022/10/08 15:41:32;;;;;;;;;2.75;0.00;;;;;28.91;22.73;101923.56;5056580;28;45390;-77
2022/10/08 15:44:20;;;;;;;;;0.00;0.00;;;;;28.56;22.97;101916.19;5056676;28;45383;-77
2022/10/08 15:46:47;;;;;;;;;0.75;0.75;;;;;28.29;24.27;101916.25;5056259;28;45563;-78
2022/10/08 15:49:13;;;;;;;;;1.00;0.00;;;;;28.18;24.42;101920.97;5049928;28;45499;-75
2022/10/08 15:51:39;;;;;;;;;1.25;1.00;;;;;27.96;24.29;101913.13;5042464;28;45507;-76
2022/10/08 15:54:05;;;;;;;;;1.00;0.00;;;;;27.80;24.28;101912.94;5055989;28;45514;-75
2022/10/08 15:56:31;;;;;;;;;1.25;1.25;;;;;27.66;24.87;101918.94;5056137;28;45450;-81
2022/10/08 15:58:57;;;;;;;;;0.75;0.75;;;;;27.32;24.71;101914.00;5059336;28;46419;-85
2022/10/08 16:01:24;;;;;;;;;1.00;0.00;;;;;27.17;24.87;101937.53;5057257;28;45328;-82
2022/10/08 16:03:52;;;;;;;;;1.00;0.00;;;;;26.83;24.73;101933.50;5056133;28;45474;-85
2022/10/08 16:06:20;;;;;;;;;1.50;1.50;;;;;26.65;25.29;101939.75;5058328;28;47131;-84
2022/10/08 16:08:46;;;;;;;;;1.00;1.00;;;;;26.53;25.80;101935.44;5060641;28;45351;-83
2022/10/08 16:11:17;;;;;;;;;1.00;1.00;;;;;26.42;26.24;101935.56;5059540;28;45374;-80
2022/10/08 16:13:47;;;;;;;;;0.50;0.50;;;;;26.25;25.06;101912.38;5060921;28;45348;-82